sensor_id;sensor_type;location;lat;lon;timestamp;P1;durP1;ratioP1;P2;durP2;ratioP2
63880;SDS011;50046;46.672;11.152;2022-12-16T00:00:08;0.47;;;0.47;;
63880;SDS011;50046;46.672;11.152;2022-12-16T00:00:19;0.50;;;0.50;;
63880;SDS011;50046;46.672;11.152;2022-12-16T00:00:30;0.60;;;0.60;;
63880;SDS011;50046;46.672;11.152;2022-12-16T00:00:40;0.60;;;0.60;;
63880;SDS011;50046;46.672;11.152;2022-12-16T00:00:50;0.60;;;0.60;;
63880;SDS011;50046;46.672;11.152;2022-12-16T00:01:19;0.60;;;0.60;;
63880;SDS011;50046;46.672;11.152;2022-12-16T00:01:33;0.50;;;0.50;;
63880;SDS011;50046;46.672;11.152;2022-12-16T00:01:43;0.50;;;0.50;;
63880;SDS011;50046;46.672;11.152;2022-12-16T00:01:54;0.43;;;0.43;;
63880;SDS011;50046;46.672;11.152;2022-12-16T00:02:04;0.50;;;0.50;;
63880;SDS011;50046;46.672;11.152;2022-12-16T00:02:15;0.60;;;0.60;;
63880;SDS011;50046;46.672;11.152;2022-12-16T00:02:26;0.60;;;0.60;;
63880;SDS011;50046;46.672;11.152;2022-12-16T00:02:37;0.60;;;0.60;;
63880;SDS011;50046;46.672;11.152;2022-12-16T00:02:47;0.50;;;0.50;;
63880;SDS011;50046;46.672;11.152;2022-12-16T00:02:58;0.50;;;0.50;;
63880;SDS011;50046;46.672;11.152;2022-12-16T00:03:10;0.50;;;0.50;;
63880;SDS011;50046;46.672;11.152;2022-12-16T00:03:20;0.40;;;0.40;;
63880;SDS011;50046;46.672;11.152;2022-12-16T00:03:31;0.40;;;0.40;;
63880;SDS011;50046;46.672;11.152;2022-12-16T00:03:45;0.50;;;0.50;;
63880;SDS011;50046;46.672;11.152;2022-12-16T00:03:57;0.60;;;0.60;;
63880;SDS011;50046;46.672;11.152;2022-12-16T00:04:08;0.60;;;0.60;;
63880;SDS011;50046;46.672;11.152;2022-12-16T00:04:19;0.50;;;0.50;;
63880;SDS011;50046;46.672;11.152;2022-12-16T00:04:29;0.50;;;0.50;;
63880;SDS011;50046;46.672;11.152;2022-12-16T00:04:40;0.50;;;0.50;;
63880;SDS011;50046;46.672;11.152;2022-12-16T00:04:50;0.40;;;0.40;;
63880;SDS011;50046;46.672;11.152;2022-12-16T00:05:00;0.40;;;0.40;;
63880;SDS011;50046;46.672;11.152;2022-12-16T00:05:13;0.50;;;0.50;;
63880;SDS011;50046;46.672;11.152;2022-12-16T00:05:23;0.63;;;0.63;;
63880;SDS011;50046;46.672;11.152;2022-12-16T00:05:33;0.70;;;0.70;;
63880;SDS011;50046;46.672;11.152;2022-12-16T00:05:47;0.70;;;0.70;;
63880;SDS011;50046;46.672;11.152;2022-12-16T00:05:57;0.63;;;0.63;;
63880;SDS011;50046;46.672;11.152;2022-12-16T00:06:08;0.60;;;0.60;;
63880;SDS011;50046;46.672;11.152;2022-12-16T00:06:18;0.60;;;0.60;;
63880;SDS011;50046;46.672;11.152;2022-12-16T00:06:31;0.60;;;0.60;;
63880;SDS011;50046;46.672;11.152;2022-12-16T00:06:42;0.50;;;0.50;;
63880;SDS011;50046;46.672;11.152;2022-12-16T00:06:53;0.50;;;0.50;;
63880;SDS011;50046;46.672;11.152;2022-12-16T00:07:03;0.50;;;0.50;;
63880;SDS011;50046;46.672;11.152;2022-12-16T00:07:14;0.40;;;0.40;;
63880;SDS011;50046;46.672;11.152;2022-12-16T00:07:24;0.40;;;0.40;;
63880;SDS011;50046;46.672;11.152;2022-12-16T00:07:35;0.50;;;0.50;;
63880;SDS011;50046;46.672;11.152;2022-12-16T00:07:48;0.60;;;0.60;;
63880;SDS011;50046;46.672;11.152;2022-12-16T00:07:58;0.60;;;0.60;;
63880;SDS011;50046;46.672;11.152;2022-12-16T00:08:09;0.60;;;0.60;;
63880;SDS011;50046;46.672;11.152;2022-12-16T00:08:19;0.60;;;0.60;;
63880;SDS011;50046;46.672;11.152;2022-12-16T00:08:33;0.50;;;0.50;;
63880;SDS011;50046;46.672;11.152;2022-12-16T00:08:45;0.50;;;0.50;;
63880;SDS011;50046;46.672;11.152;2022-12-16T00:08:56;0.50;;;0.50;;
63880;SDS011;50046;46.672;11.152;2022-12-16T00:09:07;0.45;;;0.45;;
63880;SDS011;50046;46.672;11.152;2022-12-16T00:09:18;0.60;;;0.60;;
63880;SDS011;50046;46.672;11.152;2022-12-16T00:09:28;0.75;;;0.75;;
63880;SDS011;50046;46.672;11.152;2022-12-16T00:09:39;0.80;;;0.80;;
63880;SDS011;50046;46.672;11.152;2022-12-16T00:09:49;0.80;;;0.80;;
63880;SDS011;50046;46.672;11.152;2022-12-16T00:09:59;0.70;;;0.70;;
63880;SDS011;50046;46.672;11.152;2022-12-16T00:10:10;0.70;;;0.70;;
63880;SDS011;50046;46.672;11.152;2022-12-16T00:10:21;0.60;;;0.60;;
63880;SDS011;50046;46.672;11.152;2022-12-16T00:10:32;0.60;;;0.60;;
63880;SDS011;50046;46.672;11.152;2022-12-16T00:11:02;0.50;;;0.50;;
63880;SDS011;50046;46.672;11.152;2022-12-16T00:11:14;0.50;;;0.50;;
63880;SDS011;50046;46.672;11.152;2022-12-16T00:11:24;0.50;;;0.50;;
63880;SDS011;50046;46.672;11.152;2022-12-16T00:11:35;0.50;;;0.50;;
63880;SDS011;50046;46.672;11.152;2022-12-16T00:11:46;0.50;;;0.50;;
63880;SDS011;50046;46.672;11.152;2022-12-16T00:11:56;0.60;;;0.60;;
63880;SDS011;50046;46.672;11.152;2022-12-16T00:12:06;0.60;;;0.60;;
63880;SDS011;50046;46.672;11.152;2022-12-16T00:12:17;0.60;;;0.60;;
63880;SDS011;50046;46.672;11.152;2022-12-16T00:12:27;0.50;;;0.50;;
63880;SDS011;50046;46.672;11.152;2022-12-16T00:12:38;0.50;;;0.50;;
63880;SDS011;50046;46.672;11.152;2022-12-16T00:12:48;0.50;;;0.50;;
63880;SDS011;50046;46.672;11.152;2022-12-16T00:12:58;0.60;;;0.60;;
63880;SDS011;50046;46.672;11.152;2022-12-16T00:13:09;0.70;;;0.70;;
63880;SDS011;50046;46.672;11.152;2022-12-16T00:13:19;0.80;;;0.80;;
63880;SDS011;50046;46.672;11.152;2022-12-16T00:13:30;0.80;;;0.80;;
63880;SDS011;50046;46.672;11.152;2022-12-16T00:13:41;0.70;;;0.70;;
63880;SDS011;50046;46.672;11.152;2022-12-16T00:13:51;0.70;;;0.70;;
63880;SDS011;50046;46.672;11.152;2022-12-16T00:14:02;0.70;;;0.70;;
63880;SDS011;50046;46.672;11.152;2022-12-16T00:14:12;0.60;;;0.60;;
63880;SDS011;50046;46.672;11.152;2022-12-16T00:14:22;0.60;;;0.60;;
63880;SDS011;50046;46.672;11.152;2022-12-16T00:14:33;0.57;;;0.57;;
63880;SDS011;50046;46.672;11.152;2022-12-16T00:14:43;0.50;;;0.50;;
63880;SDS011;50046;46.672;11.152;2022-12-16T00:14:54;0.50;;;0.50;;
63880;SDS011;50046;46.672;11.152;2022-12-16T00:15:04;0.47;;;0.47;;
63880;SDS011;50046;46.672;11.152;2022-12-16T00:15:15;0.40;;;0.40;;
63880;SDS011;50046;46.672;11.152;2022-12-16T00:15:25;0.50;;;0.50;;
63880;SDS011;50046;46.672;11.152;2022-12-16T00:15:36;0.60;;;0.60;;
63880;SDS011;50046;46.672;11.152;2022-12-16T00:15:46;0.60;;;0.60;;
63880;SDS011;50046;46.672;11.152;2022-12-16T00:15:57;0.55;;;0.55;;
63880;SDS011;50046;46.672;11.152;2022-12-16T00:16:15;0.50;;;0.50;;
63880;SDS011;50046;46.672;11.152;2022-12-16T00:16:27;0.50;;;0.50;;
63880;SDS011;50046;46.672;11.152;2022-12-16T00:16:38;0.50;;;0.50;;
63880;SDS011;50046;46.672;11.152;2022-12-16T00:16:48;0.50;;;0.50;;
63880;SDS011;50046;46.672;11.152;2022-12-16T00:16:59;0.60;;;0.60;;
63880;SDS011;50046;46.672;11.152;2022-12-16T00:17:09;0.60;;;0.60;;
63880;SDS011;50046;46.672;11.152;2022-12-16T00:17:19;0.60;;;0.60;;
63880;SDS011;50046;46.672;11.152;2022-12-16T00:17:30;0.50;;;0.50;;
63880;SDS011;50046;46.672;11.152;2022-12-16T00:17:40;0.50;;;0.50;;
63880;SDS011;50046;46.672;11.152;2022-12-16T00:17:51;0.50;;;0.50;;
63880;SDS011;50046;46.672;11.152;2022-12-16T00:18:01;0.50;;;0.50;;
63880;SDS011;50046;46.672;11.152;2022-12-16T00:18:12;0.45;;;0.45;;
63880;SDS011;50046;46.672;11.152;2022-12-16T00:18:23;0.45;;;0.45;;
63880;SDS011;50046;46.672;11.152;2022-12-16T00:18:33;0.60;;;0.60;;
63880;SDS011;50046;46.672;11.152;2022-12-16T00:18:44;0.80;;;0.80;;
63880;SDS011;50046;46.672;11.152;2022-12-16T00:18:55;0.80;;;0.80;;
63880;SDS011;50046;46.672;11.152;2022-12-16T00:19:06;0.80;;;0.80;;
63880;SDS011;50046;46.672;11.152;2022-12-16T00:19:16;0.70;;;0.70;;
63880;SDS011;50046;46.672;11.152;2022-12-16T00:19:26;0.68;;;0.68;;
63880;SDS011;50046;46.672;11.152;2022-12-16T00:19:37;0.60;;;0.60;;
63880;SDS011;50046;46.672;11.152;2022-12-16T00:19:47;0.60;;;0.60;;
63880;SDS011;50046;46.672;11.152;2022-12-16T00:19:58;0.60;;;0.60;;
63880;SDS011;50046;46.672;11.152;2022-12-16T00:20:09;0.60;;;0.60;;
63880;SDS011;50046;46.672;11.152;2022-12-16T00:20:20;0.50;;;0.50;;
63880;SDS011;50046;46.672;11.152;2022-12-16T00:20:30;0.50;;;0.50;;
63880;SDS011;50046;46.672;11.152;2022-12-16T00:20:44;0.40;;;0.40;;
63880;SDS011;50046;46.672;11.152;2022-12-16T00:20:58;0.55;;;0.55;;
63880;SDS011;50046;46.672;11.152;2022-12-16T00:21:09;0.60;;;0.60;;
63880;SDS011;50046;46.672;11.152;2022-12-16T00:21:20;0.60;;;0.60;;
63880;SDS011;50046;46.672;11.152;2022-12-16T00:21:30;0.50;;;0.50;;
63880;SDS011;50046;46.672;11.152;2022-12-16T00:21:41;0.50;;;0.50;;
63880;SDS011;50046;46.672;11.152;2022-12-16T00:21:51;0.50;;;0.50;;
63880;SDS011;50046;46.672;11.152;2022-12-16T00:22:01;0.45;;;0.45;;
63880;SDS011;50046;46.672;11.152;2022-12-16T00:22:12;0.40;;;0.40;;
63880;SDS011;50046;46.672;11.152;2022-12-16T00:22:22;0.43;;;0.43;;
63880;SDS011;50046;46.672;11.152;2022-12-16T00:22:33;0.50;;;0.50;;
63880;SDS011;50046;46.672;11.152;2022-12-16T00:22:43;0.50;;;0.50;;
63880;SDS011;50046;46.672;11.152;2022-12-16T00:22:54;0.50;;;0.50;;
63880;SDS011;50046;46.672;11.152;2022-12-16T00:23:04;0.50;;;0.50;;
63880;SDS011;50046;46.672;11.152;2022-12-16T00:23:14;0.50;;;0.50;;
63880;SDS011;50046;46.672;11.152;2022-12-16T00:23:26;0.47;;;0.47;;
63880;SDS011;50046;46.672;11.152;2022-12-16T00:23:37;0.43;;;0.43;;
63880;SDS011;50046;46.672;11.152;2022-12-16T00:23:53;0.60;;;0.60;;
63880;SDS011;50046;46.672;11.152;2022-12-16T00:24:03;0.60;;;0.60;;
63880;SDS011;50046;46.672;11.152;2022-12-16T00:24:14;0.60;;;0.60;;
63880;SDS011;50046;46.672;11.152;2022-12-16T00:24:25;0.60;;;0.60;;
63880;SDS011;50046;46.672;11.152;2022-12-16T00:24:35;0.50;;;0.50;;
63880;SDS011;50046;46.672;11.152;2022-12-16T00:24:46;0.50;;;0.50;;
63880;SDS011;50046;46.672;11.152;2022-12-16T00:24:57;0.50;;;0.50;;
63880;SDS011;50046;46.672;11.152;2022-12-16T00:25:08;0.43;;;0.43;;
63880;SDS011;50046;46.672;11.152;2022-12-16T00:25:18;0.43;;;0.43;;
63880;SDS011;50046;46.672;11.152;2022-12-16T00:25:28;0.50;;;0.50;;
63880;SDS011;50046;46.672;11.152;2022-12-16T00:25:42;0.60;;;0.60;;
63880;SDS011;50046;46.672;11.152;2022-12-16T00:25:54;0.50;;;0.50;;
63880;SDS011;50046;46.672;11.152;2022-12-16T00:26:05;0.50;;;0.50;;
63880;SDS011;50046;46.672;11.152;2022-12-16T00:26:15;0.50;;;0.50;;
63880;SDS011;50046;46.672;11.152;2022-12-16T00:26:25;0.50;;;0.50;;
63880;SDS011;50046;46.672;11.152;2022-12-16T00:26:36;0.40;;;0.40;;
63880;SDS011;50046;46.672;11.152;2022-12-16T00:26:46;0.40;;;0.40;;
63880;SDS011;50046;46.672;11.152;2022-12-16T00:26:57;0.50;;;0.50;;
63880;SDS011;50046;46.672;11.152;2022-12-16T00:27:08;0.57;;;0.57;;
63880;SDS011;50046;46.672;11.152;2022-12-16T00:27:19;0.60;;;0.60;;
63880;SDS011;50046;46.672;11.152;2022-12-16T00:27:30;0.60;;;0.60;;
63880;SDS011;50046;46.672;11.152;2022-12-16T00:27:40;0.60;;;0.60;;
63880;SDS011;50046;46.672;11.152;2022-12-16T00:27:51;0.60;;;0.60;;
63880;SDS011;50046;46.672;11.152;2022-12-16T00:28:01;0.50;;;0.50;;
63880;SDS011;50046;46.672;11.152;2022-12-16T00:28:12;0.50;;;0.50;;
63880;SDS011;50046;46.672;11.152;2022-12-16T00:28:24;0.47;;;0.47;;
63880;SDS011;50046;46.672;11.152;2022-12-16T00:28:34;0.43;;;0.43;;
63880;SDS011;50046;46.672;11.152;2022-12-16T00:28:45;0.50;;;0.50;;
63880;SDS011;50046;46.672;11.152;2022-12-16T00:28:56;0.60;;;0.60;;
63880;SDS011;50046;46.672;11.152;2022-12-16T00:29:07;0.60;;;0.60;;
63880;SDS011;50046;46.672;11.152;2022-12-16T00:29:20;0.60;;;0.60;;
63880;SDS011;50046;46.672;11.152;2022-12-16T00:29:30;0.52;;;0.52;;
63880;SDS011;50046;46.672;11.152;2022-12-16T00:29:40;0.50;;;0.50;;
63880;SDS011;50046;46.672;11.152;2022-12-16T00:29:51;0.50;;;0.50;;
63880;SDS011;50046;46.672;11.152;2022-12-16T00:30:01;0.50;;;0.50;;
63880;SDS011;50046;46.672;11.152;2022-12-16T00:30:12;0.50;;;0.50;;
63880;SDS011;50046;46.672;11.152;2022-12-16T00:30:22;0.60;;;0.60;;
63880;SDS011;50046;46.672;11.152;2022-12-16T00:30:33;0.65;;;0.65;;
63880;SDS011;50046;46.672;11.152;2022-12-16T00:30:43;0.60;;;0.60;;
63880;SDS011;50046;46.672;11.152;2022-12-16T00:30:54;0.60;;;0.60;;
63880;SDS011;50046;46.672;11.152;2022-12-16T00:31:05;0.60;;;0.60;;
63880;SDS011;50046;46.672;11.152;2022-12-16T00:31:16;0.50;;;0.50;;
63880;SDS011;50046;46.672;11.152;2022-12-16T00:31:26;0.50;;;0.50;;
63880;SDS011;50046;46.672;11.152;2022-12-16T00:31:36;0.50;;;0.50;;
63880;SDS011;50046;46.672;11.152;2022-12-16T00:31:47;0.43;;;0.43;;
63880;SDS011;50046;46.672;11.152;2022-12-16T00:31:57;0.40;;;0.40;;
63880;SDS011;50046;46.672;11.152;2022-12-16T00:32:08;0.50;;;0.50;;
63880;SDS011;50046;46.672;11.152;2022-12-16T00:32:18;0.52;;;0.52;;
63880;SDS011;50046;46.672;11.152;2022-12-16T00:32:28;0.60;;;0.60;;
63880;SDS011;50046;46.672;11.152;2022-12-16T00:32:39;0.60;;;0.60;;
63880;SDS011;50046;46.672;11.152;2022-12-16T00:32:49;0.60;;;0.60;;
63880;SDS011;50046;46.672;11.152;2022-12-16T00:32:59;0.60;;;0.60;;
63880;SDS011;50046;46.672;11.152;2022-12-16T00:33:10;0.50;;;0.50;;
63880;SDS011;50046;46.672;11.152;2022-12-16T00:33:21;0.50;;;0.50;;
63880;SDS011;50046;46.672;11.152;2022-12-16T00:33:33;0.50;;;0.50;;
63880;SDS011;50046;46.672;11.152;2022-12-16T00:33:43;0.40;;;0.40;;
63880;SDS011;50046;46.672;11.152;2022-12-16T00:33:55;0.50;;;0.50;;
63880;SDS011;50046;46.672;11.152;2022-12-16T00:34:08;0.60;;;0.60;;
63880;SDS011;50046;46.672;11.152;2022-12-16T00:34:19;0.60;;;0.60;;
63880;SDS011;50046;46.672;11.152;2022-12-16T00:34:29;0.60;;;0.60;;
63880;SDS011;50046;46.672;11.152;2022-12-16T00:34:40;0.57;;;0.57;;
63880;SDS011;50046;46.672;11.152;2022-12-16T00:34:50;0.50;;;0.50;;
63880;SDS011;50046;46.672;11.152;2022-12-16T00:35:00;0.50;;;0.50;;
63880;SDS011;50046;46.672;11.152;2022-12-16T00:35:11;0.50;;;0.50;;
63880;SDS011;50046;46.672;11.152;2022-12-16T00:35:21;0.40;;;0.40;;
63880;SDS011;50046;46.672;11.152;2022-12-16T00:35:31;0.57;;;0.57;;
63880;SDS011;50046;46.672;11.152;2022-12-16T00:35:42;0.70;;;0.70;;
63880;SDS011;50046;46.672;11.152;2022-12-16T00:35:55;0.80;;;0.80;;
63880;SDS011;50046;46.672;11.152;2022-12-16T00:36:06;0.80;;;0.80;;
63880;SDS011;50046;46.672;11.152;2022-12-16T00:36:17;0.70;;;0.70;;
63880;SDS011;50046;46.672;11.152;2022-12-16T00:36:27;0.70;;;0.70;;
63880;SDS011;50046;46.672;11.152;2022-12-16T00:36:37;0.60;;;0.60;;
63880;SDS011;50046;46.672;11.152;2022-12-16T00:36:48;0.60;;;0.60;;
63880;SDS011;50046;46.672;11.152;2022-12-16T00:36:59;0.50;;;0.50;;
63880;SDS011;50046;46.672;11.152;2022-12-16T00:37:10;0.50;;;0.50;;
63880;SDS011;50046;46.672;11.152;2022-12-16T00:37:22;0.50;;;0.50;;
63880;SDS011;50046;46.672;11.152;2022-12-16T00:37:32;0.50;;;0.50;;
63880;SDS011;50046;46.672;11.152;2022-12-16T00:37:43;0.47;;;0.47;;
63880;SDS011;50046;46.672;11.152;2022-12-16T00:37:56;0.52;;;0.52;;
63880;SDS011;50046;46.672;11.152;2022-12-16T00:38:07;0.63;;;0.63;;
63880;SDS011;50046;46.672;11.152;2022-12-16T00:38:18;0.70;;;0.70;;
63880;SDS011;50046;46.672;11.152;2022-12-16T00:38:29;0.60;;;0.60;;
63880;SDS011;50046;46.672;11.152;2022-12-16T00:38:39;0.57;;;0.57;;
63880;SDS011;50046;46.672;11.152;2022-12-16T00:38:52;0.50;;;0.50;;
63880;SDS011;50046;46.672;11.152;2022-12-16T00:39:03;0.50;;;0.50;;
63880;SDS011;50046;46.672;11.152;2022-12-16T00:39:13;0.50;;;0.50;;
63880;SDS011;50046;46.672;11.152;2022-12-16T00:39:24;0.43;;;0.43;;
63880;SDS011;50046;46.672;11.152;2022-12-16T00:39:34;0.50;;;0.50;;
63880;SDS011;50046;46.672;11.152;2022-12-16T00:39:45;0.60;;;0.60;;
63880;SDS011;50046;46.672;11.152;2022-12-16T00:39:55;0.70;;;0.70;;
63880;SDS011;50046;46.672;11.152;2022-12-16T00:40:05;0.70;;;0.70;;
63880;SDS011;50046;46.672;11.152;2022-12-16T00:40:16;0.70;;;0.70;;
63880;SDS011;50046;46.672;11.152;2022-12-16T00:40:27;0.67;;;0.67;;
63880;SDS011;50046;46.672;11.152;2022-12-16T00:40:37;0.60;;;0.60;;
63880;SDS011;50046;46.672;11.152;2022-12-16T00:40:47;0.60;;;0.60;;
63880;SDS011;50046;46.672;11.152;2022-12-16T00:40:58;0.57;;;0.57;;
63880;SDS011;50046;46.672;11.152;2022-12-16T00:41:09;0.50;;;0.50;;
63880;SDS011;50046;46.672;11.152;2022-12-16T00:41:19;0.50;;;0.50;;
63880;SDS011;50046;46.672;11.152;2022-12-16T00:41:30;0.50;;;0.50;;
63880;SDS011;50046;46.672;11.152;2022-12-16T00:41:40;0.47;;;0.47;;
63880;SDS011;50046;46.672;11.152;2022-12-16T00:41:51;0.40;;;0.40;;
63880;SDS011;50046;46.672;11.152;2022-12-16T00:42:01;0.60;;;0.60;;
63880;SDS011;50046;46.672;11.152;2022-12-16T00:42:13;0.70;;;0.70;;
63880;SDS011;50046;46.672;11.152;2022-12-16T00:42:23;0.80;;;0.80;;
63880;SDS011;50046;46.672;11.152;2022-12-16T00:42:33;0.70;;;0.70;;
63880;SDS011;50046;46.672;11.152;2022-12-16T00:42:44;0.70;;;0.70;;
63880;SDS011;50046;46.672;11.152;2022-12-16T00:42:54;0.60;;;0.60;;
63880;SDS011;50046;46.672;11.152;2022-12-16T00:43:04;0.60;;;0.60;;
63880;SDS011;50046;46.672;11.152;2022-12-16T00:43:15;0.60;;;0.60;;
63880;SDS011;50046;46.672;11.152;2022-12-16T00:43:25;0.50;;;0.50;;
63880;SDS011;50046;46.672;11.152;2022-12-16T00:43:36;0.50;;;0.50;;
63880;SDS011;50046;46.672;11.152;2022-12-16T00:43:46;0.50;;;0.50;;
63880;SDS011;50046;46.672;11.152;2022-12-16T00:43:57;0.50;;;0.50;;
63880;SDS011;50046;46.672;11.152;2022-12-16T00:44:07;0.50;;;0.50;;
63880;SDS011;50046;46.672;11.152;2022-12-16T00:44:18;0.50;;;0.50;;
63880;SDS011;50046;46.672;11.152;2022-12-16T00:44:28;0.55;;;0.55;;
63880;SDS011;50046;46.672;11.152;2022-12-16T00:44:39;0.60;;;0.60;;
63880;SDS011;50046;46.672;11.152;2022-12-16T00:44:49;0.60;;;0.60;;
63880;SDS011;50046;46.672;11.152;2022-12-16T00:44:59;0.60;;;0.60;;
63880;SDS011;50046;46.672;11.152;2022-12-16T00:45:10;0.50;;;0.50;;
63880;SDS011;50046;46.672;11.152;2022-12-16T00:45:20;0.50;;;0.50;;
63880;SDS011;50046;46.672;11.152;2022-12-16T00:45:31;0.50;;;0.50;;
63880;SDS011;50046;46.672;11.152;2022-12-16T00:45:41;0.47;;;0.47;;
63880;SDS011;50046;46.672;11.152;2022-12-16T00:45:52;0.50;;;0.50;;
63880;SDS011;50046;46.672;11.152;2022-12-16T00:46:02;0.50;;;0.50;;
63880;SDS011;50046;46.672;11.152;2022-12-16T00:46:13;0.50;;;0.50;;
63880;SDS011;50046;46.672;11.152;2022-12-16T00:46:23;0.60;;;0.60;;
63880;SDS011;50046;46.672;11.152;2022-12-16T00:46:33;0.60;;;0.60;;
63880;SDS011;50046;46.672;11.152;2022-12-16T00:46:44;0.60;;;0.60;;
63880;SDS011;50046;46.672;11.152;2022-12-16T00:46:54;0.50;;;0.50;;
63880;SDS011;50046;46.672;11.152;2022-12-16T00:47:04;0.50;;;0.50;;
63880;SDS011;50046;46.672;11.152;2022-12-16T00:47:15;0.50;;;0.50;;
63880;SDS011;50046;46.672;11.152;2022-12-16T00:47:25;0.50;;;0.50;;
63880;SDS011;50046;46.672;11.152;2022-12-16T00:47:38;0.50;;;0.50;;
63880;SDS011;50046;46.672;11.152;2022-12-16T00:47:49;0.50;;;0.50;;
63880;SDS011;50046;46.672;11.152;2022-12-16T00:47:59;0.50;;;0.50;;
63880;SDS011;50046;46.672;11.152;2022-12-16T00:48:10;0.60;;;0.60;;
63880;SDS011;50046;46.672;11.152;2022-12-16T00:48:20;0.50;;;0.50;;
63880;SDS011;50046;46.672;11.152;2022-12-16T00:48:34;0.50;;;0.50;;
63880;SDS011;50046;46.672;11.152;2022-12-16T00:48:44;0.40;;;0.40;;
63880;SDS011;50046;46.672;11.152;2022-12-16T00:48:55;0.40;;;0.40;;
63880;SDS011;50046;46.672;11.152;2022-12-16T00:49:05;0.50;;;0.50;;
63880;SDS011;50046;46.672;11.152;2022-12-16T00:49:16;0.60;;;0.60;;
63880;SDS011;50046;46.672;11.152;2022-12-16T00:49:26;0.70;;;0.70;;
63880;SDS011;50046;46.672;11.152;2022-12-16T00:49:37;0.60;;;0.60;;
63880;SDS011;50046;46.672;11.152;2022-12-16T00:49:47;0.60;;;0.60;;
63880;SDS011;50046;46.672;11.152;2022-12-16T00:49:57;0.60;;;0.60;;
63880;SDS011;50046;46.672;11.152;2022-12-16T00:50:08;0.60;;;0.60;;
63880;SDS011;50046;46.672;11.152;2022-12-16T00:50:19;0.60;;;0.60;;
63880;SDS011;50046;46.672;11.152;2022-12-16T00:50:29;0.50;;;0.50;;
63880;SDS011;50046;46.672;11.152;2022-12-16T00:50:40;0.50;;;0.50;;
63880;SDS011;50046;46.672;11.152;2022-12-16T00:50:54;0.50;;;0.50;;
63880;SDS011;50046;46.672;11.152;2022-12-16T00:51:05;0.40;;;0.40;;
63880;SDS011;50046;46.672;11.152;2022-12-16T00:51:15;0.40;;;0.40;;
63880;SDS011;50046;46.672;11.152;2022-12-16T00:51:26;0.50;;;0.50;;
63880;SDS011;50046;46.672;11.152;2022-12-16T00:51:37;0.50;;;0.50;;
63880;SDS011;50046;46.672;11.152;2022-12-16T00:51:47;0.50;;;0.50;;
63880;SDS011;50046;46.672;11.152;2022-12-16T00:51:58;0.50;;;0.50;;
63880;SDS011;50046;46.672;11.152;2022-12-16T00:52:08;0.50;;;0.50;;
63880;SDS011;50046;46.672;11.152;2022-12-16T00:52:19;0.43;;;0.43;;
63880;SDS011;50046;46.672;11.152;2022-12-16T00:52:29;0.50;;;0.50;;
63880;SDS011;50046;46.672;11.152;2022-12-16T00:52:39;0.43;;;0.43;;
63880;SDS011;50046;46.672;11.152;2022-12-16T00:52:50;0.50;;;0.50;;
63880;SDS011;50046;46.672;11.152;2022-12-16T00:53:00;0.60;;;0.60;;
63880;SDS011;50046;46.672;11.152;2022-12-16T00:53:12;0.60;;;0.60;;
63880;SDS011;50046;46.672;11.152;2022-12-16T00:53:23;0.50;;;0.50;;
63880;SDS011;50046;46.672;11.152;2022-12-16T00:53:34;0.50;;;0.50;;
63880;SDS011;50046;46.672;11.152;2022-12-16T00:53:44;0.40;;;0.40;;
63880;SDS011;50046;46.672;11.152;2022-12-16T00:53:55;0.40;;;0.40;;
63880;SDS011;50046;46.672;11.152;2022-12-16T00:54:05;0.50;;;0.50;;
63880;SDS011;50046;46.672;11.152;2022-12-16T00:54:16;0.60;;;0.60;;
63880;SDS011;50046;46.672;11.152;2022-12-16T00:54:26;0.70;;;0.70;;
63880;SDS011;50046;46.672;11.152;2022-12-16T00:54:36;0.60;;;0.60;;
63880;SDS011;50046;46.672;11.152;2022-12-16T00:54:47;0.57;;;0.57;;
63880;SDS011;50046;46.672;11.152;2022-12-16T00:54:57;0.50;;;0.50;;
63880;SDS011;50046;46.672;11.152;2022-12-16T00:55:08;0.50;;;0.50;;
63880;SDS011;50046;46.672;11.152;2022-12-16T00:55:19;0.50;;;0.50;;
63880;SDS011;50046;46.672;11.152;2022-12-16T00:55:30;0.50;;;0.50;;
63880;SDS011;50046;46.672;11.152;2022-12-16T00:55:41;0.50;;;0.50;;
63880;SDS011;50046;46.672;11.152;2022-12-16T00:56:02;0.60;;;0.60;;
63880;SDS011;50046;46.672;11.152;2022-12-16T00:56:18;0.70;;;0.70;;
63880;SDS011;50046;46.672;11.152;2022-12-16T00:56:28;0.60;;;0.60;;
63880;SDS011;50046;46.672;11.152;2022-12-16T00:56:38;0.60;;;0.60;;
63880;SDS011;50046;46.672;11.152;2022-12-16T00:56:49;0.60;;;0.60;;
63880;SDS011;50046;46.672;11.152;2022-12-16T00:56:59;0.60;;;0.60;;
63880;SDS011;50046;46.672;11.152;2022-12-16T00:57:10;0.50;;;0.50;;
63880;SDS011;50046;46.672;11.152;2022-12-16T00:57:20;0.50;;;0.50;;
63880;SDS011;50046;46.672;11.152;2022-12-16T00:57:31;0.50;;;0.50;;
63880;SDS011;50046;46.672;11.152;2022-12-16T00:57:41;0.50;;;0.50;;
63880;SDS011;50046;46.672;11.152;2022-12-16T00:57:52;0.50;;;0.50;;
63880;SDS011;50046;46.672;11.152;2022-12-16T00:58:02;0.60;;;0.60;;
63880;SDS011;50046;46.672;11.152;2022-12-16T00:58:13;0.70;;;0.70;;
63880;SDS011;50046;46.672;11.152;2022-12-16T00:58:24;0.80;;;0.80;;
63880;SDS011;50046;46.672;11.152;2022-12-16T00:58:34;0.70;;;0.70;;
63880;SDS011;50046;46.672;11.152;2022-12-16T00:58:46;0.70;;;0.70;;
63880;SDS011;50046;46.672;11.152;2022-12-16T00:58:56;0.60;;;0.60;;
63880;SDS011;50046;46.672;11.152;2022-12-16T00:59:06;0.60;;;0.60;;
63880;SDS011;50046;46.672;11.152;2022-12-16T00:59:17;0.60;;;0.60;;
63880;SDS011;50046;46.672;11.152;2022-12-16T00:59:27;0.60;;;0.60;;
63880;SDS011;50046;46.672;11.152;2022-12-16T00:59:37;0.50;;;0.50;;
63880;SDS011;50046;46.672;11.152;2022-12-16T00:59:48;0.50;;;0.50;;
63880;SDS011;50046;46.672;11.152;2022-12-16T00:59:59;0.50;;;0.50;;
63880;SDS011;50046;46.672;11.152;2022-12-16T01:00:10;0.40;;;0.40;;
63880;SDS011;50046;46.672;11.152;2022-12-16T01:00:22;0.50;;;0.50;;
63880;SDS011;50046;46.672;11.152;2022-12-16T01:00:33;0.50;;;0.50;;
63880;SDS011;50046;46.672;11.152;2022-12-16T01:00:44;0.50;;;0.50;;
63880;SDS011;50046;46.672;11.152;2022-12-16T01:00:54;0.50;;;0.50;;
63880;SDS011;50046;46.672;11.152;2022-12-16T01:01:06;0.50;;;0.50;;
63880;SDS011;50046;46.672;11.152;2022-12-16T01:01:18;0.50;;;0.50;;
63880;SDS011;50046;46.672;11.152;2022-12-16T01:01:29;0.40;;;0.40;;
63880;SDS011;50046;46.672;11.152;2022-12-16T01:01:39;0.50;;;0.50;;
63880;SDS011;50046;46.672;11.152;2022-12-16T01:01:49;0.50;;;0.50;;
63880;SDS011;50046;46.672;11.152;2022-12-16T01:02:00;0.60;;;0.60;;
63880;SDS011;50046;46.672;11.152;2022-12-16T01:02:10;0.65;;;0.65;;
63880;SDS011;50046;46.672;11.152;2022-12-16T01:02:20;0.60;;;0.60;;
63880;SDS011;50046;46.672;11.152;2022-12-16T01:02:31;0.60;;;0.60;;
63880;SDS011;50046;46.672;11.152;2022-12-16T01:02:42;0.50;;;0.50;;
63880;SDS011;50046;46.672;11.152;2022-12-16T01:02:54;0.50;;;0.50;;
63880;SDS011;50046;46.672;11.152;2022-12-16T01:03:04;0.50;;;0.50;;
63880;SDS011;50046;46.672;11.152;2022-12-16T01:03:15;0.47;;;0.47;;
63880;SDS011;50046;46.672;11.152;2022-12-16T01:03:27;0.50;;;0.50;;
63880;SDS011;50046;46.672;11.152;2022-12-16T01:03:37;0.50;;;0.50;;
63880;SDS011;50046;46.672;11.152;2022-12-16T01:03:48;0.55;;;0.55;;
63880;SDS011;50046;46.672;11.152;2022-12-16T01:03:58;0.53;;;0.53;;
63880;SDS011;50046;46.672;11.152;2022-12-16T01:04:09;0.50;;;0.50;;
63880;SDS011;50046;46.672;11.152;2022-12-16T01:04:19;0.50;;;0.50;;
63880;SDS011;50046;46.672;11.152;2022-12-16T01:04:29;0.50;;;0.50;;
63880;SDS011;50046;46.672;11.152;2022-12-16T01:04:40;0.40;;;0.40;;
63880;SDS011;50046;46.672;11.152;2022-12-16T01:04:50;0.50;;;0.50;;